sensor_id;sensor_type;location;lat;lon;timestamp;pressure;altitude;pressure_sealevel;temperature;humidity
60246;BME280;46107;53.356;-1.524;2022-07-22T00:01:06;99730.22;;;19.00;41.75
60246;BME280;46107;53.356;-1.524;2022-07-22T00:03:33;99727.15;;;18.94;42.02
60246;BME280;46107;53.356;-1.524;2022-07-22T00:06:01;99727.73;;;18.35;42.83
60246;BME280;46107;53.356;-1.524;2022-07-22T00:08:28;99718.43;;;18.97;41.83
60246;BME280;46107;53.356;-1.524;2022-07-22T00:10:56;99719.11;;;18.01;43.35
60246;BME280;46107;53.356;-1.524;2022-07-22T00:13:24;99720.95;;;17.83;44.42
60246;BME280;46107;53.356;-1.524;2022-07-22T00:15:52;99720.92;;;18.35;42.90
60246;BME280;46107;53.356;-1.524;2022-07-22T00:18:19;99716.00;;;18.13;43.09
60246;BME280;46107;53.356;-1.524;2022-07-22T00:20:46;99711.02;;;19.22;41.60
60246;BME280;46107;53.356;-1.524;2022-07-22T00:23:14;99710.96;;;18.79;42.27
60246;BME280;46107;53.356;-1.524;2022-07-22T00:25:41;99716.76;;;18.40;43.35
60246;BME280;46107;53.356;-1.524;2022-07-22T00:28:09;99721.89;;;18.53;42.75
60246;BME280;46107;53.356;-1.524;2022-07-22T00:30:37;99717.96;;;18.76;42.12
60246;BME280;46107;53.356;-1.524;2022-07-22T00:33:04;99717.20;;;19.07;41.72
60246;BME280;46107;53.356;-1.524;2022-07-22T00:35:32;99723.67;;;17.68;44.09
60246;BME280;46107;53.356;-1.524;2022-07-22T00:37:59;99722.03;;;18.01;43.39
60246;BME280;46107;53.356;-1.524;2022-07-22T00:40:26;99724.93;;;17.45;44.48
60246;BME280;46107;53.356;-1.524;2022-07-22T00:42:54;99725.59;;;17.31;45.31
60246;BME280;46107;53.356;-1.524;2022-07-22T00:45:21;99723.69;;;18.31;43.21
60246;BME280;46107;53.356;-1.524;2022-07-22T00:47:49;99719.55;;;18.40;42.86
60246;BME280;46107;53.356;-1.524;2022-07-22T00:50:16;99716.08;;;17.93;44.13
60246;BME280;46107;53.356;-1.524;2022-07-22T00:52:45;99717.35;;;17.16;45.34
60246;BME280;46107;53.356;-1.524;2022-07-22T00:55:13;99712.83;;;18.17;44.27
60246;BME280;46107;53.356;-1.524;2022-07-22T00:57:40;99713.27;;;17.80;44.65
60246;BME280;46107;53.356;-1.524;2022-07-22T01:00:11;99713.07;;;18.05;44.12
60246;BME280;46107;53.356;-1.524;2022-07-22T01:02:40;99711.00;;;17.84;43.66
60246;BME280;46107;53.356;-1.524;2022-07-22T01:05:08;99706.94;;;16.78;46.36
60246;BME280;46107;53.356;-1.524;2022-07-22T01:07:37;99706.98;;;17.31;45.65
60246;BME280;46107;53.356;-1.524;2022-07-22T01:10:06;99707.62;;;17.36;45.76
60246;BME280;46107;53.356;-1.524;2022-07-22T01:12:33;99707.22;;;17.47;44.86
60246;BME280;46107;53.356;-1.524;2022-07-22T01:15:01;99702.65;;;18.05;44.36
60246;BME280;46107;53.356;-1.524;2022-07-22T01:17:28;99702.41;;;18.02;44.05
60246;BME280;46107;53.356;-1.524;2022-07-22T01:20:00;99697.41;;;18.58;43.48
60246;BME280;46107;53.356;-1.524;2022-07-22T01:22:30;99695.90;;;18.46;43.16
60246;BME280;46107;53.356;-1.524;2022-07-22T01:24:57;99691.04;;;18.10;43.83
60246;BME280;46107;53.356;-1.524;2022-07-22T01:27:25;99691.04;;;17.50;44.39
60246;BME280;46107;53.356;-1.524;2022-07-22T01:29:52;99688.93;;;17.00;46.13
60246;BME280;46107;53.356;-1.524;2022-07-22T01:32:19;99688.32;;;16.93;46.22
60246;BME280;46107;53.356;-1.524;2022-07-22T01:34:47;99690.28;;;16.18;47.40
60246;BME280;46107;53.356;-1.524;2022-07-22T01:37:14;99690.69;;;16.30;48.02
60246;BME280;46107;53.356;-1.524;2022-07-22T01:39:42;99691.29;;;17.58;45.35
60246;BME280;46107;53.356;-1.524;2022-07-22T01:42:09;99691.88;;;17.37;45.80
60246;BME280;46107;53.356;-1.524;2022-07-22T01:44:37;99691.04;;;17.18;46.21
60246;BME280;46107;53.356;-1.524;2022-07-22T01:47:04;99688.22;;;17.28;46.42
60246;BME280;46107;53.356;-1.524;2022-07-22T01:49:32;99687.40;;;16.81;46.80
60246;BME280;46107;53.356;-1.524;2022-07-22T01:51:59;99683.95;;;16.68;47.29
60246;BME280;46107;53.356;-1.524;2022-07-22T01:54:27;99682.50;;;16.73;47.15
60246;BME280;46107;53.356;-1.524;2022-07-22T01:56:54;99680.20;;;16.36;47.88
60246;BME280;46107;53.356;-1.524;2022-07-22T01:59:22;99680.36;;;17.03;46.62
60246;BME280;46107;53.356;-1.524;2022-07-22T02:01:49;99679.38;;;17.02;47.14
60246;BME280;46107;53.356;-1.524;2022-07-22T02:04:17;99678.86;;;16.52;47.75
60246;BME280;46107;53.356;-1.524;2022-07-22T02:06:44;99681.22;;;17.40;46.17
60246;BME280;46107;53.356;-1.524;2022-07-22T02:09:12;99679.52;;;17.18;46.46
60246;BME280;46107;53.356;-1.524;2022-07-22T02:11:40;99680.43;;;17.09;46.58
60246;BME280;46107;53.356;-1.524;2022-07-22T02:14:07;99682.96;;;17.80;45.51
60246;BME280;46107;53.356;-1.524;2022-07-22T02:16:34;99682.98;;;17.55;45.49
60246;BME280;46107;53.356;-1.524;2022-07-22T02:19:02;99682.05;;;17.28;45.53
60246;BME280;46107;53.356;-1.524;2022-07-22T02:21:30;99680.62;;;17.23;46.27
60246;BME280;46107;53.356;-1.524;2022-07-22T02:23:57;99676.97;;;17.54;45.85
60246;BME280;46107;53.356;-1.524;2022-07-22T02:26:25;99673.73;;;17.56;45.73
60246;BME280;46107;53.356;-1.524;2022-07-22T02:28:52;99672.79;;;18.43;44.33
60246;BME280;46107;53.356;-1.524;2022-07-22T02:31:19;99670.91;;;18.50;44.19
60246;BME280;46107;53.356;-1.524;2022-07-22T02:33:47;99669.45;;;17.61;45.72
60246;BME280;46107;53.356;-1.524;2022-07-22T02:36:14;99668.46;;;17.77;45.34
60246;BME280;46107;53.356;-1.524;2022-07-22T02:38:41;99666.39;;;18.18;43.92
60246;BME280;46107;53.356;-1.524;2022-07-22T02:41:09;99668.56;;;17.97;44.32
60246;BME280;46107;53.356;-1.524;2022-07-22T02:43:36;99669.97;;;17.52;45.82
60246;BME280;46107;53.356;-1.524;2022-07-22T02:46:04;99666.22;;;17.83;45.55
60246;BME280;46107;53.356;-1.524;2022-07-22T02:48:31;99663.94;;;17.99;44.78
60246;BME280;46107;53.356;-1.524;2022-07-22T02:50:59;99667.25;;;18.24;44.74
60246;BME280;46107;53.356;-1.524;2022-07-22T02:53:26;99667.86;;;17.51;45.84
60246;BME280;46107;53.356;-1.524;2022-07-22T02:55:54;99664.29;;;17.57;44.99
60246;BME280;46107;53.356;-1.524;2022-07-22T02:58:21;99662.58;;;18.41;44.39
60246;BME280;46107;53.356;-1.524;2022-07-22T03:00:49;99661.65;;;17.45;45.83
60246;BME280;46107;53.356;-1.524;2022-07-22T03:03:16;99658.81;;;18.33;44.82
60246;BME280;46107;53.356;-1.524;2022-07-22T03:05:44;99655.59;;;18.05;45.01
60246;BME280;46107;53.356;-1.524;2022-07-22T03:08:11;99645.37;;;18.64;44.23
60246;BME280;46107;53.356;-1.524;2022-07-22T03:10:39;99649.31;;;17.82;45.00
60246;BME280;46107;53.356;-1.524;2022-07-22T03:13:07;99639.56;;;18.26;44.13
60246;BME280;46107;53.356;-1.524;2022-07-22T03:15:34;99639.15;;;18.58;43.71
60246;BME280;46107;53.356;-1.524;2022-07-22T03:18:02;99643.32;;;17.74;45.85
60246;BME280;46107;53.356;-1.524;2022-07-22T03:20:29;99645.97;;;17.16;45.81
60246;BME280;46107;53.356;-1.524;2022-07-22T03:22:56;99645.63;;;18.07;45.29
60246;BME280;46107;53.356;-1.524;2022-07-22T03:25:24;99645.62;;;16.87;46.89
60246;BME280;46107;53.356;-1.524;2022-07-22T03:27:51;99642.59;;;17.78;45.47
60246;BME280;46107;53.356;-1.524;2022-07-22T03:30:19;99639.42;;;17.43;46.55
60246;BME280;46107;53.356;-1.524;2022-07-22T03:32:46;99639.31;;;17.06;47.34
60246;BME280;46107;53.356;-1.524;2022-07-22T03:35:16;99635.36;;;17.11;47.30
60246;BME280;46107;53.356;-1.524;2022-07-22T03:37:43;99634.89;;;17.33;46.89
60246;BME280;46107;53.356;-1.524;2022-07-22T03:40:11;99635.13;;;17.73;45.88
60246;BME280;46107;53.356;-1.524;2022-07-22T03:42:39;99633.37;;;16.61;47.94
60246;BME280;46107;53.356;-1.524;2022-07-22T03:45:08;99640.15;;;17.53;46.38
60246;BME280;46107;53.356;-1.524;2022-07-22T03:47:35;99633.71;;;18.14;44.75
60246;BME280;46107;53.356;-1.524;2022-07-22T03:50:04;99634.61;;;17.28;46.70
60246;BME280;46107;53.356;-1.524;2022-07-22T03:52:32;99632.18;;;17.84;45.86
60246;BME280;46107;53.356;-1.524;2022-07-22T03:54:59;99626.53;;;16.38;48.31
60246;BME280;46107;53.356;-1.524;2022-07-22T03:57:27;99623.73;;;17.00;47.32
60246;BME280;46107;53.356;-1.524;2022-07-22T03:59:54;99626.10;;;17.56;46.44
60246;BME280;46107;53.356;-1.524;2022-07-22T04:02:22;99630.97;;;17.78;46.04
60246;BME280;46107;53.356;-1.524;2022-07-22T04:04:49;99629.33;;;17.81;45.81
60246;BME280;46107;53.356;-1.524;2022-07-22T04:07:17;99627.19;;;16.69;48.02
60246;BME280;46107;53.356;-1.524;2022-07-22T04:09:44;99625.10;;;16.52;48.42
60246;BME280;46107;53.356;-1.524;2022-07-22T04:12:11;99621.28;;;16.20;49.05
60246;BME280;46107;53.356;-1.524;2022-07-22T04:14:39;99618.03;;;16.26;49.40
60246;BME280;46107;53.356;-1.524;2022-07-22T04:17:06;99617.01;;;16.19;49.55
60246;BME280;46107;53.356;-1.524;2022-07-22T04:19:34;99618.67;;;16.82;48.01
60246;BME280;46107;53.356;-1.524;2022-07-22T04:22:02;99616.09;;;17.01;47.65
60246;BME280;46107;53.356;-1.524;2022-07-22T04:24:29;99612.47;;;16.40;48.48
60246;BME280;46107;53.356;-1.524;2022-07-22T04:26:56;99613.51;;;17.32;47.76
60246;BME280;46107;53.356;-1.524;2022-07-22T04:29:24;99616.89;;;16.79;48.79
60246;BME280;46107;53.356;-1.524;2022-07-22T04:31:51;99614.26;;;16.55;48.96
60246;BME280;46107;53.356;-1.524;2022-07-22T04:34:19;99616.72;;;17.33;47.39
60246;BME280;46107;53.356;-1.524;2022-07-22T04:36:46;99615.09;;;16.61;48.41
60246;BME280;46107;53.356;-1.524;2022-07-22T04:39:14;99617.55;;;16.82;48.22
60246;BME280;46107;53.356;-1.524;2022-07-22T04:41:41;99613.96;;;16.53;48.76
60246;BME280;46107;53.356;-1.524;2022-07-22T04:44:09;99614.27;;;17.57;46.84
60246;BME280;46107;53.356;-1.524;2022-07-22T04:46:36;99616.10;;;16.69;48.59
60246;BME280;46107;53.356;-1.524;2022-07-22T04:49:04;99619.35;;;15.78;50.80
60246;BME280;46107;53.356;-1.524;2022-07-22T04:51:31;99612.87;;;16.39;49.20
60246;BME280;46107;53.356;-1.524;2022-07-22T04:53:59;99616.62;;;17.29;48.02
60246;BME280;46107;53.356;-1.524;2022-07-22T04:56:26;99613.77;;;17.69;46.84
60246;BME280;46107;53.356;-1.524;2022-07-22T04:58:54;99614.75;;;18.22;46.90
60246;BME280;46107;53.356;-1.524;2022-07-22T05:01:21;99613.71;;;17.03;48.77
60246;BME280;46107;53.356;-1.524;2022-07-22T05:03:49;99614.12;;;17.31;47.84
60246;BME280;46107;53.356;-1.524;2022-07-22T05:06:16;99614.47;;;16.31;50.05
60246;BME280;46107;53.356;-1.524;2022-07-22T05:08:44;99616.20;;;17.56;47.31
60246;BME280;46107;53.356;-1.524;2022-07-22T05:11:11;99612.53;;;16.39;49.81
60246;BME280;46107;53.356;-1.524;2022-07-22T05:13:39;99610.58;;;16.67;49.91
60246;BME280;46107;53.356;-1.524;2022-07-22T05:16:07;99612.45;;;15.86;51.37
60246;BME280;46107;53.356;-1.524;2022-07-22T05:18:34;99609.25;;;16.88;49.77
60246;BME280;46107;53.356;-1.524;2022-07-22T05:21:02;99608.05;;;16.70;50.16
60246;BME280;46107;53.356;-1.524;2022-07-22T05:23:30;99613.44;;;16.65;49.70
60246;BME280;46107;53.356;-1.524;2022-07-22T05:25:57;99619.46;;;15.88;51.78
60246;BME280;46107;53.356;-1.524;2022-07-22T05:28:25;99620.84;;;15.82;51.98
60246;BME280;46107;53.356;-1.524;2022-07-22T05:30:53;99623.00;;;16.12;51.37
60246;BME280;46107;53.356;-1.524;2022-07-22T05:33:20;99621.05;;;17.09;49.45
60246;BME280;46107;53.356;-1.524;2022-07-22T05:35:50;99617.81;;;16.70;50.36
60246;BME280;46107;53.356;-1.524;2022-07-22T05:38:17;99616.04;;;15.69;51.62
60246;BME280;46107;53.356;-1.524;2022-07-22T05:40:44;99611.49;;;16.69;50.58
60246;BME280;46107;53.356;-1.524;2022-07-22T05:43:12;99614.73;;;16.87;49.68
60246;BME280;46107;53.356;-1.524;2022-07-22T05:45:39;99608.84;;;16.34;50.18
60246;BME280;46107;53.356;-1.524;2022-07-22T05:48:07;99609.41;;;15.66;52.38
60246;BME280;46107;53.356;-1.524;2022-07-22T05:50:35;99608.21;;;15.84;51.76
60246;BME280;46107;53.356;-1.524;2022-07-22T05:53:03;99612.02;;;15.03;53.38
60246;BME280;46107;53.356;-1.524;2022-07-22T05:55:30;99611.22;;;16.30;51.40
60246;BME280;46107;53.356;-1.524;2022-07-22T05:57:58;99610.84;;;16.45;50.61
60246;BME280;46107;53.356;-1.524;2022-07-22T06:00:26;99618.35;;;16.80;49.82
60246;BME280;46107;53.356;-1.524;2022-07-22T06:02:53;99616.89;;;17.16;49.78
60246;BME280;46107;53.356;-1.524;2022-07-22T06:05:21;99618.89;;;17.03;49.57
60246;BME280;46107;53.356;-1.524;2022-07-22T06:07:49;99622.15;;;17.15;48.85
60246;BME280;46107;53.356;-1.524;2022-07-22T06:10:16;99623.20;;;16.95;49.64
60246;BME280;46107;53.356;-1.524;2022-07-22T06:12:43;99622.10;;;17.44;48.50
60246;BME280;46107;53.356;-1.524;2022-07-22T06:15:11;99624.23;;;16.65;49.75
60246;BME280;46107;53.356;-1.524;2022-07-22T06:17:38;99623.43;;;16.85;49.89
60246;BME280;46107;53.356;-1.524;2022-07-22T06:20:06;99619.74;;;16.19;51.13
60246;BME280;46107;53.356;-1.524;2022-07-22T06:22:34;99620.92;;;17.37;49.12
60246;BME280;46107;53.356;-1.524;2022-07-22T06:25:01;99617.81;;;16.92;50.07
60246;BME280;46107;53.356;-1.524;2022-07-22T06:27:28;99614.43;;;16.41;51.21
60246;BME280;46107;53.356;-1.524;2022-07-22T06:29:56;99619.67;;;16.14;51.83
60246;BME280;46107;53.356;-1.524;2022-07-22T06:32:23;99617.42;;;16.64;51.89
60246;BME280;46107;53.356;-1.524;2022-07-22T06:34:51;99622.25;;;16.61;52.17
60246;BME280;46107;53.356;-1.524;2022-07-22T06:37:18;99624.17;;;16.64;51.99
60246;BME280;46107;53.356;-1.524;2022-07-22T06:39:46;99623.43;;;16.29;52.21
60246;BME280;46107;53.356;-1.524;2022-07-22T06:42:13;99625.50;;;14.94;55.05
60246;BME280;46107;53.356;-1.524;2022-07-22T06:44:41;99626.45;;;15.16;55.34
60246;BME280;46107;53.356;-1.524;2022-07-22T06:47:08;99623.03;;;16.03;53.17
60246;BME280;46107;53.356;-1.524;2022-07-22T06:49:36;99626.70;;;14.56;56.17
60246;BME280;46107;53.356;-1.524;2022-07-22T06:52:04;99627.15;;;14.31;57.65
60246;BME280;46107;53.356;-1.524;2022-07-22T06:54:31;99626.59;;;15.18;55.95
60246;BME280;46107;53.356;-1.524;2022-07-22T06:56:58;99627.36;;;14.93;57.07
60246;BME280;46107;53.356;-1.524;2022-07-22T06:59:25;99625.93;;;15.52;55.75
60246;BME280;46107;53.356;-1.524;2022-07-22T07:01:53;99628.45;;;15.54;55.08
60246;BME280;46107;53.356;-1.524;2022-07-22T07:04:20;99626.95;;;16.11;54.13
60246;BME280;46107;53.356;-1.524;2022-07-22T07:06:49;99625.86;;;15.89;54.49
60246;BME280;46107;53.356;-1.524;2022-07-22T07:09:16;99626.83;;;15.53;54.91
60246;BME280;46107;53.356;-1.524;2022-07-22T07:11:44;99627.33;;;15.11;56.05
60246;BME280;46107;53.356;-1.524;2022-07-22T07:14:11;99627.42;;;14.94;56.85
60246;BME280;46107;53.356;-1.524;2022-07-22T07:16:39;99627.88;;;14.84;57.26
60246;BME280;46107;53.356;-1.524;2022-07-22T07:19:07;99627.24;;;15.27;55.99
60246;BME280;46107;53.356;-1.524;2022-07-22T07:21:34;99626.58;;;14.83;57.40
60246;BME280;46107;53.356;-1.524;2022-07-22T07:24:02;99626.87;;;14.42;57.57
60246;BME280;46107;53.356;-1.524;2022-07-22T07:26:29;99623.69;;;14.68;57.85
60246;BME280;46107;53.356;-1.524;2022-07-22T07:28:57;99625.89;;;16.09;54.56
60246;BME280;46107;53.356;-1.524;2022-07-22T07:31:24;99625.18;;;16.30;53.02
60246;BME280;46107;53.356;-1.524;2022-07-22T07:33:51;99627.54;;;15.78;54.70
60246;BME280;46107;53.356;-1.524;2022-07-22T07:36:19;99627.52;;;14.50;57.61
60246;BME280;46107;53.356;-1.524;2022-07-22T07:38:46;99628.26;;;14.97;56.65
60246;BME280;46107;53.356;-1.524;2022-07-22T07:41:14;99624.07;;;15.08;56.50
60246;BME280;46107;53.356;-1.524;2022-07-22T07:43:41;99626.27;;;14.90;55.89
60246;BME280;46107;53.356;-1.524;2022-07-22T07:46:09;99629.36;;;14.13;57.89
60246;BME280;46107;53.356;-1.524;2022-07-22T07:48:36;99630.47;;;13.78;58.76
60246;BME280;46107;53.356;-1.524;2022-07-22T07:51:04;99628.62;;;14.97;56.24
60246;BME280;46107;53.356;-1.524;2022-07-22T07:53:31;99625.12;;;13.87;59.41
60246;BME280;46107;53.356;-1.524;2022-07-22T07:55:59;99630.71;;;12.98;60.62
60246;BME280;46107;53.356;-1.524;2022-07-22T07:58:27;99630.15;;;13.21;60.26
60246;BME280;46107;53.356;-1.524;2022-07-22T08:00:55;99626.00;;;13.89;59.18
60246;BME280;46107;53.356;-1.524;2022-07-22T08:03:22;99623.21;;;14.60;56.84
60246;BME280;46107;53.356;-1.524;2022-07-22T08:05:50;99621.44;;;13.96;58.48
60246;BME280;46107;53.356;-1.524;2022-07-22T08:08:17;99616.89;;;14.61;57.25
60246;BME280;46107;53.356;-1.524;2022-07-22T08:10:45;99619.13;;;13.81;59.67
60246;BME280;46107;53.356;-1.524;2022-07-22T08:13:12;99620.22;;;14.48;57.79
60246;BME280;46107;53.356;-1.524;2022-07-22T08:15:40;99617.41;;;14.31;58.04
60246;BME280;46107;53.356;-1.524;2022-07-22T08:18:07;99616.04;;;14.70;56.69
60246;BME280;46107;53.356;-1.524;2022-07-22T08:20:34;99616.51;;;13.93;58.20
60246;BME280;46107;53.356;-1.524;2022-07-22T08:23:02;99613.25;;;14.15;57.73
60246;BME280;46107;53.356;-1.524;2022-07-22T08:25:29;99612.80;;;14.55;57.48
60246;BME280;46107;53.356;-1.524;2022-07-22T08:27:57;99612.38;;;14.87;56.58
60246;BME280;46107;53.356;-1.524;2022-07-22T08:30:25;99607.05;;;14.85;56.31
60246;BME280;46107;53.356;-1.524;2022-07-22T08:32:53;99607.95;;;14.90;56.45
60246;BME280;46107;53.356;-1.524;2022-07-22T08:35:21;99609.43;;;13.32;60.29
60246;BME280;46107;53.356;-1.524;2022-07-22T08:37:53;99608.61;;;14.68;58.23
60246;BME280;46107;53.356;-1.524;2022-07-22T08:40:20;99609.75;;;14.55;57.75
60246;BME280;46107;53.356;-1.524;2022-07-22T08:42:49;99610.09;;;15.17;56.37
60246;BME280;46107;53.356;-1.524;2022-07-22T08:45:17;99608.58;;;15.39;55.00
60246;BME280;46107;53.356;-1.524;2022-07-22T08:47:45;99611.96;;;15.43;55.71
60246;BME280;46107;53.356;-1.524;2022-07-22T08:50:13;99618.89;;;12.78;60.37
60246;BME280;46107;53.356;-1.524;2022-07-22T08:52:40;99611.53;;;14.18;58.03
60246;BME280;46107;53.356;-1.524;2022-07-22T08:55:08;99610.28;;;13.47;58.62
60246;BME280;46107;53.356;-1.524;2022-07-22T08:57:36;99612.58;;;13.71;59.19
60246;BME280;46107;53.356;-1.524;2022-07-22T09:00:10;99617.25;;;12.79;61.44
60246;BME280;46107;53.356;-1.524;2022-07-22T09:02:39;99609.66;;;13.73;59.32
60246;BME280;46107;53.356;-1.524;2022-07-22T09:05:09;99609.85;;;14.13;57.88
60246;BME280;46107;53.356;-1.524;2022-07-22T09:07:38;99609.99;;;14.88;55.74
60246;BME280;46107;53.356;-1.524;2022-07-22T09:10:08;99605.13;;;15.98;53.42
60246;BME280;46107;53.356;-1.524;2022-07-22T09:12:51;99601.85;;;15.52;54.95
60246;BME280;46107;53.356;-1.524;2022-07-22T09:15:26;99601.45;;;15.75;53.92
60246;BME280;46107;53.356;-1.524;2022-07-22T09:17:55;99598.37;;;14.98;54.33
60246;BME280;46107;53.356;-1.524;2022-07-22T09:20:23;99596.90;;;15.18;54.81
60246;BME280;46107;53.356;-1.524;2022-07-22T09:22:52;99599.25;;;15.17;55.01
60246;BME280;46107;53.356;-1.524;2022-07-22T09:25:23;99596.49;;;15.73;53.39
60246;BME280;46107;53.356;-1.524;2022-07-22T09:27:52;99593.68;;;16.33;52.66
60246;BME280;46107;53.356;-1.524;2022-07-22T09:30:22;99597.25;;;15.72;53.54
60246;BME280;46107;53.356;-1.524;2022-07-22T09:32:52;99598.92;;;15.68;53.13
60246;BME280;46107;53.356;-1.524;2022-07-22T09:35:25;99604.71;;;15.56;53.74
60246;BME280;46107;53.356;-1.524;2022-07-22T09:37:55;99602.97;;;14.96;55.71
60246;BME280;46107;53.356;-1.524;2022-07-22T09:40:25;99597.21;;;16.00;53.95
60246;BME280;46107;53.356;-1.524;2022-07-22T09:42:54;99602.88;;;14.53;56.87
60246;BME280;46107;53.356;-1.524;2022-07-22T09:45:24;99597.46;;;15.65;54.72
60246;BME280;46107;53.356;-1.524;2022-07-22T09:47:53;99603.00;;;15.19;55.89
60246;BME280;46107;53.356;-1.524;2022-07-22T09:50:26;99604.89;;;15.29;54.40
60246;BME280;46107;53.356;-1.524;2022-07-22T09:52:57;99603.74;;;15.73;53.83
60246;BME280;46107;53.356;-1.524;2022-07-22T09:55:27;99598.03;;;15.27;55.47
60246;BME280;46107;53.356;-1.524;2022-07-22T09:57:56;99600.15;;;14.78;56.11
60246;BME280;46107;53.356;-1.524;2022-07-22T10:00:26;99598.74;;;15.60;55.30
60246;BME280;46107;53.356;-1.524;2022-07-22T10:03:03;99599.60;;;13.89;58.20
60246;BME280;46107;53.356;-1.524;2022-07-22T10:05:33;99596.67;;;15.02;56.20
60246;BME280;46107;53.356;-1.524;2022-07-22T10:08:02;99597.13;;;14.28;58.25
60246;BME280;46107;53.356;-1.524;2022-07-22T10:10:34;99600.23;;;14.65;58.21
60246;BME280;46107;53.356;-1.524;2022-07-22T10:13:04;99598.99;;;15.19;56.90
60246;BME280;46107;53.356;-1.524;2022-07-22T10:15:33;99594.58;;;14.74;56.89
60246;BME280;46107;53.356;-1.524;2022-07-22T10:18:04;99593.53;;;15.65;55.94
60246;BME280;46107;53.356;-1.524;2022-07-22T10:20:33;99588.33;;;16.28;53.30
60246;BME280;46107;53.356;-1.524;2022-07-22T10:23:02;99589.29;;;15.17;56.04
60246;BME280;46107;53.356;-1.524;2022-07-22T10:25:33;99586.02;;;16.05;54.51
60246;BME280;46107;53.356;-1.524;2022-07-22T10:28:21;99584.38;;;16.11;55.30
60246;BME280;46107;53.356;-1.524;2022-07-22T10:30:49;99580.76;;;16.09;55.45
60246;BME280;46107;53.356;-1.524;2022-07-22T10:33:18;99580.17;;;15.90;54.68
60246;BME280;46107;53.356;-1.524;2022-07-22T10:35:55;99574.59;;;16.25;54.05
60246;BME280;46107;53.356;-1.524;2022-07-22T10:38:24;99576.82;;;17.27;51.83
60246;BME280;46107;53.356;-1.524;2022-07-22T10:40:54;99576.91;;;16.66;53.78
60246;BME280;46107;53.356;-1.524;2022-07-22T10:43:24;99577.03;;;16.28;53.95
60246;BME280;46107;53.356;-1.524;2022-07-22T10:45:53;99575.21;;;16.34;53.74
60246;BME280;46107;53.356;-1.524;2022-07-22T10:48:24;99569.38;;;16.12;53.71
60246;BME280;46107;53.356;-1.524;2022-07-22T10:51:04;99569.52;;;16.81;53.40
60246;BME280;46107;53.356;-1.524;2022-07-22T10:53:42;99567.34;;;17.54;50.92
60246;BME280;46107;53.356;-1.524;2022-07-22T10:56:17;99562.66;;;17.66;51.79
60246;BME280;46107;53.356;-1.524;2022-07-22T10:58:54;99567.00;;;17.10;52.37
60246;BME280;46107;53.356;-1.524;2022-07-22T11:01:24;99562.81;;;15.28;55.59
60246;BME280;46107;53.356;-1.524;2022-07-22T11:03:51;99563.65;;;17.31;52.04
60246;BME280;46107;53.356;-1.524;2022-07-22T11:06:22;99566.02;;;16.61;53.87
60246;BME280;46107;53.356;-1.524;2022-07-22T11:08:52;99560.11;;;16.53;53.84
60246;BME280;46107;53.356;-1.524;2022-07-22T11:11:31;99559.19;;;16.87;53.37
60246;BME280;46107;53.356;-1.524;2022-07-22T11:13:59;99555.76;;;16.92;53.29
60246;BME280;46107;53.356;-1.524;2022-07-22T11:16:27;99556.92;;;16.84;53.81
60246;BME280;46107;53.356;-1.524;2022-07-22T11:18:56;99558.83;;;14.34;57.93
60246;BME280;46107;53.356;-1.524;2022-07-22T11:21:26;99560.64;;;15.10;56.81
60246;BME280;46107;53.356;-1.524;2022-07-22T11:23:58;99562.70;;;15.08;58.26
60246;BME280;46107;53.356;-1.524;2022-07-22T11:26:34;99560.52;;;15.25;57.70
60246;BME280;46107;53.356;-1.524;2022-07-22T11:29:03;99558.52;;;14.56;58.85
60246;BME280;46107;53.356;-1.524;2022-07-22T11:31:30;99552.89;;;13.61;60.36
60246;BME280;46107;53.356;-1.524;2022-07-22T11:34:20;99553.65;;;14.98;57.13
60246;BME280;46107;53.356;-1.524;2022-07-22T11:36:50;99555.91;;;14.15;59.21
60246;BME280;46107;53.356;-1.524;2022-07-22T11:39:20;99548.14;;;15.51;56.50
60246;BME280;46107;53.356;-1.524;2022-07-22T11:41:48;99547.66;;;15.54;56.04
60246;BME280;46107;53.356;-1.524;2022-07-22T11:44:18;99547.28;;;15.28;56.51
60246;BME280;46107;53.356;-1.524;2022-07-22T11:46:47;99552.05;;;14.21;59.20
60246;BME280;46107;53.356;-1.524;2022-07-22T11:49:17;99551.33;;;14.37;59.70
60246;BME280;46107;53.356;-1.524;2022-07-22T11:51:45;99546.34;;;15.34;56.49
60246;BME280;46107;53.356;-1.524;2022-07-22T11:54:13;99547.14;;;14.78;58.13
60246;BME280;46107;53.356;-1.524;2022-07-22T11:56:41;99544.44;;;15.12;57.81
60246;BME280;46107;53.356;-1.524;2022-07-22T11:59:12;99540.74;;;15.23;58.02
60246;BME280;46107;53.356;-1.524;2022-07-22T12:01:40;99543.26;;;15.09;58.28
60246;BME280;46107;53.356;-1.524;2022-07-22T12:04:10;99541.42;;;15.10;57.84
60246;BME280;46107;53.356;-1.524;2022-07-22T12:06:39;99540.96;;;15.25;57.93
60246;BME280;46107;53.356;-1.524;2022-07-22T12:09:09;99541.37;;;13.87;60.85
60246;BME280;46107;53.356;-1.524;2022-07-22T12:11:39;99539.28;;;14.56;58.33
60246;BME280;46107;53.356;-1.524;2022-07-22T12:14:10;99533.83;;;15.40;57.19
60246;BME280;46107;53.356;-1.524;2022-07-22T12:16:39;99539.98;;;15.08;57.75
60246;BME280;46107;53.356;-1.524;2022-07-22T12:19:07;99537.25;;;15.89;55.80
60246;BME280;46107;53.356;-1.524;2022-07-22T12:21:50;99540.03;;;15.44;56.94
60246;BME280;46107;53.356;-1.524;2022-07-22T12:24:28;99537.52;;;15.17;57.32
60246;BME280;46107;53.356;-1.524;2022-07-22T12:26:58;99540.85;;;16.58;55.02
60246;BME280;46107;53.356;-1.524;2022-07-22T12:29:30;99538.57;;;15.38;56.31
60246;BME280;46107;53.356;-1.524;2022-07-22T12:32:02;99541.93;;;14.25;58.85
60246;BME280;46107;53.356;-1.524;2022-07-22T12:34:36;99540.46;;;15.38;57.46
60246;BME280;46107;53.356;-1.524;2022-07-22T12:37:14;99537.02;;;14.06;59.74
60246;BME280;46107;53.356;-1.524;2022-07-22T12:39:54;99533.87;;;14.82;57.85
60246;BME280;46107;53.356;-1.524;2022-07-22T12:42:22;99532.94;;;14.58;59.04
60246;BME280;46107;53.356;-1.524;2022-07-22T12:44:59;99530.34;;;15.24;57.69
60246;BME280;46107;53.356;-1.524;2022-07-22T12:47:46;99528.49;;;15.42;57.28
60246;BME280;46107;53.356;-1.524;2022-07-22T12:50:24;99530.11;;;14.22;60.08
60246;BME280;46107;53.356;-1.524;2022-07-22T12:52:54;99527.49;;;16.08;55.23
60246;BME280;46107;53.356;-1.524;2022-07-22T12:55:22;99524.55;;;15.68;56.49
60246;BME280;46107;53.356;-1.524;2022-07-22T12:57:52;99521.43;;;15.96;55.71